createdAt,value
2018-08-08T00:02:17.832Z,25.50
2018-08-08T00:07:20.922Z,25.40
2018-08-08T00:12:24.056Z,25.40
2018-08-08T00:17:27.145Z,25.30
2018-08-08T00:22:30.274Z,25.20
2018-08-08T00:27:33.404Z,25.10
2018-08-08T00:32:36.636Z,25.00
2018-08-08T00:37:39.769Z,24.90
2018-08-08T00:42:43.635Z,24.90
2018-08-08T00:47:47.569Z,24.90
2018-08-08T00:52:50.660Z,24.80
2018-08-08T00:57:53.768Z,24.80
2018-08-08T01:02:56.852Z,24.80
2018-08-08T01:07:59.960Z,24.70
2018-08-08T01:13:03.090Z,24.70
2018-08-08T01:18:06.636Z,24.60
2018-08-08T01:23:09.720Z,24.60
2018-08-08T01:28:12.796Z,24.60
2018-08-08T01:33:15.919Z,24.50
2018-08-08T01:38:19.006Z,24.50
2018-08-08T01:43:22.129Z,24.50
2018-08-08T01:48:25.204Z,24.40
2018-08-08T01:53:28.303Z,24.40
2018-08-08T01:58:31.387Z,24.30
2018-08-08T02:03:34.641Z,24.20
2018-08-08T02:08:37.739Z,24.10
2018-08-08T02:13:40.806Z,24.10
2018-08-08T02:18:43.945Z,24.10
2018-08-08T02:23:47.039Z,24.10
2018-08-08T02:28:50.195Z,24.00
2018-08-08T02:33:53.309Z,24.00
2018-08-08T02:38:56.429Z,24.00
2018-08-08T02:43:59.525Z,24.00
2018-08-08T02:49:02.697Z,24.00
2018-08-08T02:54:05.794Z,24.00
2018-08-08T02:59:08.894Z,23.90
2018-08-08T03:04:11.968Z,23.90
2018-08-08T03:09:15.265Z,23.80
2018-08-08T03:14:18.351Z,23.80
2018-08-08T03:19:21.455Z,23.80
2018-08-08T03:24:24.526Z,23.80
2018-08-08T03:29:27.595Z,23.80
2018-08-08T03:34:30.696Z,23.80
2018-08-08T03:39:33.752Z,23.80
2018-08-08T03:44:36.858Z,23.70
2018-08-08T03:49:39.967Z,23.80
2018-08-08T03:54:43.028Z,23.80
2018-08-08T03:59:46.117Z,23.80
2018-08-08T04:04:49.466Z,23.80
2018-08-08T04:09:52.597Z,23.80
2018-08-08T04:14:55.655Z,23.70
2018-08-08T04:19:58.756Z,23.70
2018-08-08T04:25:01.869Z,23.70
2018-08-08T04:30:07.525Z,23.70
2018-08-08T04:35:10.758Z,23.80
2018-08-08T04:40:16.881Z,23.80
2018-08-08T04:45:19.963Z,23.80
2018-08-08T04:50:23.049Z,23.90
2018-08-08T04:55:26.169Z,23.90
2018-08-08T05:00:29.421Z,23.90
2018-08-08T05:05:32.528Z,24.00
2018-08-08T05:10:35.615Z,24.00
2018-08-08T05:15:38.695Z,24.00
2018-08-08T05:20:41.793Z,24.10
2018-08-08T05:25:45.473Z,24.10
2018-08-08T05:30:48.577Z,24.10
2018-08-08T05:35:51.691Z,24.10
2018-08-08T05:40:54.778Z,24.10
2018-08-08T05:45:57.860Z,24.20
2018-08-08T05:51:00.952Z,24.20
2018-08-08T05:56:04.346Z,24.20
2018-08-08T06:01:07.456Z,24.20
2018-08-08T06:06:10.544Z,24.20
2018-08-08T06:11:13.677Z,24.30
2018-08-08T06:16:16.772Z,24.30
2018-08-08T06:21:19.861Z,24.30
2018-08-08T06:26:22.946Z,24.30
2018-08-08T06:31:26.025Z,24.30
2018-08-08T06:36:29.149Z,24.40
2018-08-08T06:41:32.251Z,24.60
2018-08-08T06:46:35.997Z,24.70
2018-08-08T06:51:39.100Z,24.90
2018-08-08T06:56:42.193Z,25.10
2018-08-08T07:01:45.280Z,25.20
2018-08-08T07:06:48.377Z,25.40
2018-08-08T07:11:51.460Z,25.50
2018-08-08T07:16:55.631Z,25.70
2018-08-08T07:21:58.712Z,25.70
2018-08-08T07:27:01.809Z,25.80
2018-08-08T07:32:04.895Z,25.90
2018-08-08T07:37:08.232Z,26.20
2018-08-08T07:42:11.369Z,26.30
2018-08-08T07:47:14.470Z,26.60
2018-08-08T07:52:17.552Z,26.80
2018-08-08T07:57:20.665Z,27.00
2018-08-08T08:02:23.776Z,27.10
2018-08-08T08:07:26.900Z,27.00
2018-08-08T08:12:30.020Z,27.10
2018-08-08T08:17:33.112Z,27.20
2018-08-08T08:22:36.292Z,27.40
2018-08-08T08:27:39.949Z,27.50
2018-08-08T08:32:43.540Z,27.70
2018-08-08T08:37:46.669Z,27.90
2018-08-08T08:42:49.828Z,28.20
2018-08-08T08:47:52.947Z,28.40
2018-08-08T08:52:56.072Z,28.60
2018-08-08T08:57:59.189Z,28.70
2018-08-08T09:03:02.306Z,28.80
2018-08-08T09:08:05.478Z,29.00
2018-08-08T09:13:08.653Z,29.10
2018-08-08T09:18:11.792Z,29.10
2018-08-08T09:23:14.922Z,29.10
2018-08-08T09:28:18.032Z,29.20
2018-08-08T09:33:26.559Z,29.20
2018-08-08T09:38:30.709Z,29.30
2018-08-08T09:43:33.816Z,29.40
2018-08-08T09:48:36.949Z,29.60
2018-08-08T09:53:40.066Z,29.70
2018-08-08T09:58:43.202Z,29.80
2018-08-08T10:03:51.604Z,29.90
2018-08-08T10:08:54.660Z,29.90
2018-08-08T10:13:57.796Z,29.90
2018-08-08T10:19:00.951Z,30.00
2018-08-08T10:24:04.001Z,30.10
2018-08-08T10:29:07.152Z,30.10
2018-08-08T10:34:10.270Z,30.10
2018-08-08T10:39:13.648Z,30.00
2018-08-08T10:44:16.719Z,30.00
2018-08-08T10:49:19.817Z,29.90
2018-08-08T10:54:22.931Z,29.90
2018-08-08T10:59:26.053Z,29.90
2018-08-08T11:04:29.147Z,29.90
2018-08-08T11:09:32.286Z,30.00
2018-08-08T11:14:35.466Z,30.20
2018-08-08T11:19:38.580Z,30.40
2018-08-08T11:24:41.704Z,30.70
2018-08-08T11:29:45.042Z,31.00
2018-08-08T11:34:48.131Z,31.20
2018-08-08T11:39:51.296Z,31.50
2018-08-08T11:44:54.383Z,31.70
2018-08-08T11:49:58.093Z,31.90
2018-08-08T11:55:01.169Z,32.10
2018-08-08T12:00:05.736Z,32.30
2018-08-08T12:05:09.345Z,32.50
2018-08-08T12:10:13.253Z,32.50
2018-08-08T12:15:16.380Z,32.70
2018-08-08T12:20:20.311Z,32.90
2018-08-08T12:25:23.416Z,33.00
2018-08-08T12:30:26.517Z,33.10
2018-08-08T12:35:29.766Z,33.10
2018-08-08T12:40:32.832Z,33.20
2018-08-08T12:45:35.929Z,33.20
2018-08-08T12:50:39.059Z,33.30
2018-08-08T12:55:42.198Z,33.40
2018-08-08T13:00:45.369Z,33.40
2018-08-08T13:05:48.473Z,33.50
2018-08-08T13:10:52.268Z,33.40
2018-08-08T13:15:55.389Z,33.40
2018-08-08T13:20:58.566Z,33.30
2018-08-08T13:26:01.633Z,33.30
2018-08-08T13:31:10.900Z,33.30
2018-08-08T13:36:14.047Z,33.30
2018-08-08T13:41:17.173Z,33.30
2018-08-08T13:46:20.322Z,33.30
2018-08-08T13:51:23.518Z,33.40
2018-08-08T13:56:26.680Z,33.40
2018-08-08T14:01:29.927Z,33.50
2018-08-08T14:06:33.013Z,33.60
2018-08-08T14:11:36.126Z,33.70
2018-08-08T14:16:39.312Z,33.80
2018-08-08T14:21:42.454Z,33.80
2018-08-08T14:26:45.568Z,33.90
2018-08-08T14:31:48.683Z,33.90
2018-08-08T14:36:51.808Z,34.00
2018-08-08T14:41:54.966Z,34.10
2018-08-08T14:46:58.124Z,34.30
2018-08-08T14:52:02.370Z,34.30
2018-08-08T14:57:05.554Z,34.40
2018-08-08T15:02:10.006Z,34.30
2018-08-08T15:07:13.173Z,34.40
2018-08-08T15:12:16.322Z,34.40
2018-08-08T15:17:19.454Z,34.40
2018-08-08T15:22:22.580Z,34.50
2018-08-08T15:27:25.717Z,34.50
2018-08-08T15:32:28.898Z,34.60
2018-08-08T15:37:32.297Z,34.60
2018-08-08T15:42:35.147Z,34.60
2018-08-08T15:47:38.328Z,34.60
2018-08-08T15:52:41.514Z,34.50
2018-08-08T15:57:44.663Z,34.50
2018-08-08T16:02:47.777Z,34.50
2018-08-08T16:07:50.901Z,34.50
2018-08-08T16:12:54.017Z,34.50
2018-08-08T16:17:57.179Z,34.50
2018-08-08T16:23:00.308Z,34.50
2018-08-08T16:28:03.509Z,34.50
2018-08-08T16:33:06.738Z,34.30
2018-08-08T16:38:09.859Z,34.30
2018-08-08T16:43:13.152Z,34.20
2018-08-08T16:48:16.274Z,34.00
2018-08-08T16:53:19.444Z,33.90
2018-08-08T16:58:22.596Z,33.80
2018-08-08T17:03:25.757Z,33.60
2018-08-08T17:08:28.925Z,33.60
2018-08-08T17:13:32.029Z,33.50
2018-08-08T17:18:35.179Z,33.40
2018-08-08T17:23:38.326Z,33.30
2018-08-08T17:28:41.448Z,33.20
2018-08-08T17:33:44.579Z,33.20
2018-08-08T17:38:47.694Z,33.10
2018-08-08T17:43:51.191Z,33.10
2018-08-08T17:48:53.953Z,33.00
2018-08-08T17:53:57.148Z,32.90
2018-08-08T17:59:00.278Z,32.80
2018-08-08T18:04:03.500Z,32.60
2018-08-08T18:09:07.797Z,32.50
2018-08-08T18:14:11.040Z,32.40
2018-08-08T18:19:14.161Z,32.30
2018-08-08T18:24:17.356Z,32.10
2018-08-08T18:29:20.634Z,32.00
2018-08-08T18:34:23.737Z,31.90
2018-08-08T18:39:26.982Z,31.80
2018-08-08T18:44:30.972Z,31.70
2018-08-08T18:49:38.329Z,31.60
2018-08-08T18:54:41.810Z,31.50
2018-08-08T18:59:44.915Z,31.40
2018-08-08T19:04:48.042Z,31.20
2018-08-08T19:09:51.176Z,31.10
2018-08-08T19:14:54.335Z,31.00
2018-08-08T19:19:57.497Z,30.90
2018-08-08T19:25:00.589Z,30.80
2018-08-08T19:30:03.988Z,30.60
2018-08-08T19:35:07.140Z,30.50
2018-08-08T19:40:10.248Z,30.50
2018-08-08T19:45:13.386Z,30.30
2018-08-08T19:50:16.492Z,30.10
2018-08-08T19:55:19.595Z,29.90
2018-08-08T20:00:22.704Z,29.70
2018-08-08T20:05:25.786Z,29.50
2018-08-08T20:10:28.929Z,29.30
2018-08-08T20:15:32.059Z,29.20
2018-08-08T20:20:35.162Z,29.00
2018-08-08T20:25:38.275Z,28.80
2018-08-08T20:30:41.401Z,28.70
2018-08-08T20:35:44.557Z,28.60
2018-08-08T20:40:47.658Z,28.50
2018-08-08T20:45:50.767Z,28.40
2018-08-08T20:50:53.921Z,28.30
2018-08-08T20:55:57.018Z,28.20
2018-08-08T21:01:00.181Z,28.00
2018-08-08T21:06:03.453Z,27.90
2018-08-08T21:11:06.628Z,27.80
2018-08-08T21:16:10.018Z,27.60
2018-08-08T21:21:13.104Z,27.50
2018-08-08T21:26:16.266Z,27.40
2018-08-08T21:31:19.412Z,27.30
2018-08-08T21:36:22.540Z,27.20
2018-08-08T21:41:25.638Z,27.10
2018-08-08T21:46:28.760Z,27.00
2018-08-08T21:51:31.997Z,26.80
2018-08-08T21:56:46.481Z,26.80
2018-08-08T22:02:01.104Z,26.70
2018-08-08T22:07:15.453Z,26.60
2018-08-08T22:12:29.760Z,26.50
2018-08-08T22:17:44.186Z,26.40
2018-08-08T22:22:47.279Z,26.30
2018-08-08T22:27:50.561Z,26.20
2018-08-08T22:32:53.697Z,26.10
2018-08-08T22:37:56.788Z,26.10
2018-08-08T22:42:59.902Z,26.00
2018-08-08T22:48:03.121Z,25.90
2018-08-08T22:53:06.287Z,25.90
2018-08-08T22:58:09.398Z,25.80
2018-08-08T23:03:12.525Z,25.80
2018-08-08T23:08:15.652Z,25.70
2018-08-08T23:13:18.777Z,25.70
2018-08-08T23:18:21.891Z,25.60
2018-08-08T23:23:25.014Z,25.50
2018-08-08T23:28:28.129Z,25.40
2018-08-08T23:33:31.196Z,25.40
2018-08-08T23:38:34.303Z,25.40
2018-08-08T23:43:37.409Z,25.30
2018-08-08T23:48:40.532Z,25.30
2018-08-08T23:53:43.628Z,25.20
2018-08-08T23:58:46.728Z,25.20
